createdAt,value
2023-03-17T00:00:40.000Z,3.1
2023-03-17T00:01:56.000Z,2.8
2023-03-17T00:03:12.000Z,2.5
2023-03-17T00:04:29.000Z,2.8
2023-03-17T00:05:45.563Z,2.4
2023-03-17T00:07:01.848Z,3.4
2023-03-17T00:08:17.000Z,2.5
2023-03-17T00:09:34.000Z,3.2
2023-03-17T00:10:50.000Z,2.7
2023-03-17T00:12:06.000Z,2.5
2023-03-17T00:13:23.000Z,2.3
2023-03-17T00:14:39.000Z,2.3
2023-03-17T00:15:55.000Z,2.2
2023-03-17T00:17:10.000Z,2.7
2023-03-17T00:18:27.000Z,2.3
2023-03-17T00:19:43.000Z,2.5
2023-03-17T00:20:59.000Z,2.6
2023-03-17T00:22:16.000Z,2.3
2023-03-17T00:23:32.000Z,2.4
2023-03-17T00:24:48.000Z,2.7
2023-03-17T00:26:03.000Z,3
2023-03-17T00:27:19.000Z,2.7
2023-03-17T00:28:35.000Z,2.6
2023-03-17T00:29:51.000Z,2.8
2023-03-17T00:31:08.000Z,3.1
2023-03-17T00:32:24.000Z,2
2023-03-17T00:33:40.934Z,2.7
2023-03-17T00:34:56.000Z,2.4
2023-03-17T00:36:13.000Z,2.6
2023-03-17T00:37:29.817Z,3.1
2023-03-17T00:38:45.000Z,2.5
2023-03-17T00:40:02.361Z,2.5
2023-03-17T00:41:18.000Z,2.4
2023-03-17T00:42:34.000Z,2.6
2023-03-17T00:43:50.000Z,2.6
2023-03-17T00:45:06.000Z,2.4
2023-03-17T00:46:22.847Z,2.2
2023-03-17T00:47:38.000Z,2.1
2023-03-17T00:48:55.000Z,2.2
2023-03-17T00:50:11.000Z,2.4
2023-03-17T00:51:27.000Z,2.1
2023-03-17T00:53:59.000Z,2.7
2023-03-17T00:55:14.000Z,2.4
2023-03-17T00:56:29.000Z,2.6
2023-03-17T00:57:45.530Z,2.5
2023-03-17T00:59:00.837Z,2.5
2023-03-17T01:00:16.000Z,2.4
2023-03-17T01:01:32.000Z,2.7
2023-03-17T01:02:47.000Z,2.6
2023-03-17T01:04:03.000Z,2.4
2023-03-17T01:05:20.000Z,2.5
2023-03-17T01:06:36.000Z,2.9
2023-03-17T01:07:52.000Z,2.2
2023-03-17T01:09:08.000Z,2.3
2023-03-17T01:10:25.000Z,2.9
2023-03-17T01:11:41.726Z,2.4
2023-03-17T01:12:57.000Z,2.1
2023-03-17T01:14:14.000Z,2.3
2023-03-17T01:15:30.000Z,2.2
2023-03-17T01:16:46.000Z,2.5
2023-03-17T01:18:02.000Z,2.1
2023-03-17T01:19:18.000Z,2.3
2023-03-17T01:20:34.000Z,2.2
2023-03-17T01:21:50.000Z,2.2
2023-03-17T01:23:07.000Z,2.3
2023-03-17T01:24:23.000Z,2.4
2023-03-17T01:25:39.000Z,2.5
2023-03-17T01:26:55.000Z,2.6
2023-03-17T01:28:11.000Z,2.2
2023-03-17T01:29:26.000Z,2.6
2023-03-17T01:30:41.000Z,2.3
2023-03-17T01:31:57.000Z,2.4
2023-03-17T01:33:13.000Z,2
2023-03-17T01:34:29.000Z,2.7
2023-03-17T01:35:46.000Z,2.6
2023-03-17T01:37:02.599Z,4.3
2023-03-17T01:38:18.000Z,2.6
2023-03-17T01:39:34.000Z,2.3
2023-03-17T01:40:51.471Z,2
2023-03-17T01:42:07.000Z,2.3
2023-03-17T01:43:23.000Z,2.2
2023-03-17T01:44:40.000Z,2.3
2023-03-17T01:45:56.000Z,2.2
2023-03-17T01:47:12.000Z,2.3
2023-03-17T01:48:27.000Z,2.2
2023-03-17T01:49:44.493Z,2.5
2023-03-17T01:51:00.000Z,2.2
2023-03-17T01:52:16.000Z,2.5
2023-03-17T01:53:33.000Z,2.2
2023-03-17T01:54:49.000Z,2.6
2023-03-17T01:56:05.000Z,2.3
2023-03-17T01:57:20.000Z,2
2023-03-17T01:58:36.000Z,2.2
2023-03-17T01:59:52.000Z,2.6
2023-03-17T02:01:07.000Z,2.4
2023-03-17T02:02:23.000Z,2
2023-03-17T02:03:39.000Z,2.4
2023-03-17T02:04:55.000Z,2
2023-03-17T02:06:12.000Z,2.2
2023-03-17T02:07:28.000Z,2.4
2023-03-17T02:08:44.000Z,2.1
2023-03-17T02:10:00.000Z,2.3
2023-03-17T02:11:17.000Z,2.4
2023-03-17T02:12:33.000Z,2.3
2023-03-17T02:13:49.000Z,2.4
2023-03-17T02:15:06.000Z,2.3
2023-03-17T02:16:22.000Z,2.5
2023-03-17T02:17:38.000Z,1.9
2023-03-17T02:18:53.000Z,2.2
2023-03-17T02:20:10.000Z,2.4
2023-03-17T02:21:26.000Z,2.5
2023-03-17T02:22:42.000Z,2.6
2023-03-17T02:23:59.000Z,2.2
2023-03-17T02:25:15.000Z,2.2
2023-03-17T02:26:31.000Z,1.9
2023-03-17T02:27:46.000Z,2.4
2023-03-17T02:29:02.000Z,2.1
2023-03-17T02:30:19.076Z,2.2
2023-03-17T02:31:33.000Z,1.7
2023-03-17T02:32:49.000Z,1.8
2023-03-17T02:34:05.000Z,1.9
2023-03-17T02:35:21.000Z,2.4
2023-03-17T02:36:38.000Z,2.4
2023-03-17T02:37:54.000Z,2.4
2023-03-17T02:39:10.000Z,2.1
2023-03-17T02:40:26.000Z,2.4
2023-03-17T02:41:43.000Z,2.3
2023-03-17T02:42:59.000Z,2
2023-03-17T02:44:15.000Z,2.3
2023-03-17T02:45:32.000Z,2
2023-03-17T02:46:48.000Z,2
2023-03-17T02:48:04.000Z,2.2
2023-03-17T02:49:19.000Z,2.4
2023-03-17T02:50:36.000Z,2.5
2023-03-17T02:51:52.000Z,1.9
2023-03-17T02:53:08.000Z,2.3
2023-03-17T02:54:25.000Z,2.7
2023-03-17T02:55:41.000Z,2.6
2023-03-17T02:56:57.000Z,2.4
2023-03-17T02:58:12.000Z,2.1
2023-03-17T02:59:28.000Z,2.6
2023-03-17T03:00:44.000Z,2.6
2023-03-17T03:02:00.000Z,2.3
2023-03-17T03:03:16.000Z,2.3
2023-03-17T03:04:31.000Z,2.8
2023-03-17T03:05:48.025Z,2.7
2023-03-17T03:07:04.000Z,2.3
2023-03-17T03:08:20.000Z,2.6
2023-03-17T03:09:36.000Z,2.4
2023-03-17T03:10:52.000Z,2.3
2023-03-17T03:12:09.000Z,2.1
2023-03-17T03:13:25.000Z,2.4
2023-03-17T03:14:41.000Z,2.1
2023-03-17T03:15:58.000Z,2.4
2023-03-17T03:17:14.000Z,2.1
2023-03-17T03:18:30.915Z,2.4
2023-03-17T03:19:46.000Z,2.2
2023-03-17T03:21:02.000Z,2.1
2023-03-17T03:22:18.000Z,2.4
2023-03-17T03:23:34.000Z,2.5
2023-03-17T03:24:51.000Z,2.3
2023-03-17T03:26:07.000Z,2.1
2023-03-17T03:27:23.000Z,2.2
2023-03-17T03:28:39.000Z,2.3
2023-03-17T03:29:55.000Z,2.2
2023-03-17T03:31:10.000Z,2.1
2023-03-17T03:32:26.000Z,2.4
2023-03-17T03:33:42.000Z,1.9
2023-03-17T03:34:57.000Z,2.3
2023-03-17T03:36:13.000Z,2.2
2023-03-17T03:37:30.000Z,2.2
2023-03-17T03:40:02.000Z,2.1
2023-03-17T03:41:18.000Z,2.2
2023-03-17T03:42:35.000Z,2.1
2023-03-17T03:43:51.766Z,2.4
2023-03-17T03:45:07.060Z,2.3
2023-03-17T03:46:23.000Z,2.4
2023-03-17T03:47:39.000Z,2.2
2023-03-17T03:48:55.000Z,2.4
2023-03-17T03:50:11.000Z,2.3
2023-03-17T03:51:28.000Z,1.9
2023-03-17T03:52:44.000Z,2.7
2023-03-17T03:54:00.000Z,2.3
2023-03-17T03:55:17.000Z,2.5
2023-03-17T03:56:33.644Z,2.5
2023-03-17T03:57:49.000Z,3
2023-03-17T03:59:05.000Z,2.1
2023-03-17T04:00:22.000Z,2.3
2023-03-17T04:01:37.000Z,2.4
2023-03-17T04:02:52.000Z,2.4
2023-03-17T04:04:08.000Z,2.4
2023-03-17T04:05:23.757Z,2.7
2023-03-17T04:06:39.000Z,2.5
2023-03-17T04:07:56.000Z,2.6
2023-03-17T04:09:12.614Z,2.1
2023-03-17T04:10:28.000Z,2.4
2023-03-17T04:11:44.000Z,2.8
2023-03-17T04:13:01.000Z,2.5
2023-03-17T04:14:17.000Z,2.2
2023-03-17T04:15:33.000Z,2
2023-03-17T04:16:50.000Z,2.4
2023-03-17T04:18:06.000Z,2.4
2023-03-17T04:19:22.000Z,2.2
2023-03-17T04:20:38.000Z,2.6
2023-03-17T04:21:54.000Z,2.7
2023-03-17T04:23:10.000Z,2.5
2023-03-17T04:24:26.000Z,2.1
2023-03-17T04:25:43.350Z,2.2
2023-03-17T04:26:59.000Z,2.5
2023-03-17T04:28:15.000Z,2.7
2023-03-17T04:29:31.000Z,2.1
2023-03-17T04:30:47.000Z,2.1
2023-03-17T04:32:02.000Z,2.3
2023-03-17T04:33:19.108Z,2.2
2023-03-17T04:34:34.442Z,2.3
2023-03-17T04:35:49.000Z,3
2023-03-17T04:37:05.000Z,2.5
2023-03-17T04:38:22.000Z,2.7
2023-03-17T04:39:38.000Z,2.4
2023-03-17T04:40:54.000Z,2.6
2023-03-17T04:42:10.000Z,2.3
2023-03-17T04:43:27.000Z,2.4
2023-03-17T04:44:43.000Z,2.4
2023-03-17T04:45:59.000Z,2.5
2023-03-17T04:47:16.333Z,2.4
2023-03-17T04:48:32.000Z,2.4
2023-03-17T04:49:48.000Z,2.6
2023-03-17T04:51:04.000Z,2.4
2023-03-17T04:52:20.000Z,3.2
2023-03-17T04:53:36.000Z,3
2023-03-17T04:54:52.000Z,3.4
2023-03-17T04:56:09.000Z,3.7
2023-03-17T04:57:25.000Z,3.2
2023-03-17T04:58:41.924Z,4.8
2023-03-17T04:59:57.000Z,4.1
2023-03-17T05:01:13.000Z,4.9
2023-03-17T05:02:28.000Z,4.8
2023-03-17T05:03:44.000Z,4.7
2023-03-17T05:05:00.000Z,4.9
2023-03-17T05:06:15.000Z,5.1
2023-03-17T05:07:31.000Z,5.7
2023-03-17T05:08:48.290Z,5.3
2023-03-17T05:10:04.494Z,4.9
2023-03-17T05:11:20.724Z,5.5
2023-03-17T05:12:36.978Z,5.7
2023-03-17T05:13:52.000Z,5.7
2023-03-17T05:15:09.000Z,5.7
2023-03-17T05:16:25.000Z,5.3
2023-03-17T05:17:41.000Z,4.7
2023-03-17T05:18:57.000Z,5.6
2023-03-17T05:20:14.000Z,5.7
2023-03-17T05:21:30.000Z,5.8
2023-03-17T05:22:45.000Z,4.8
2023-03-17T05:24:01.000Z,5.1
2023-03-17T05:25:18.000Z,4.2
2023-03-17T05:26:34.000Z,5
2023-03-17T05:27:50.000Z,4.6
2023-03-17T05:29:06.000Z,4.1
2023-03-17T05:30:23.000Z,4.5
2023-03-17T05:31:38.000Z,4.1
2023-03-17T05:32:53.000Z,4.6
2023-03-17T05:34:09.000Z,4.5
2023-03-17T05:35:25.000Z,3.9
2023-03-17T05:36:40.000Z,4.3
2023-03-17T05:37:56.000Z,4.4
2023-03-17T05:39:12.000Z,3.5
2023-03-17T05:40:28.000Z,3.5
2023-03-17T05:41:45.000Z,4
2023-03-17T05:43:01.000Z,3.4
2023-03-17T05:44:17.000Z,3.7
2023-03-17T05:45:33.000Z,3.4
2023-03-17T05:46:50.000Z,3.2
2023-03-17T05:48:06.000Z,3.9
2023-03-17T05:49:22.000Z,3.3
2023-03-17T05:50:39.094Z,3
2023-03-17T05:51:55.000Z,3.1
2023-03-17T05:53:10.000Z,3.5
2023-03-17T05:54:26.813Z,3.1
2023-03-17T05:55:42.000Z,3
2023-03-17T05:56:59.000Z,3.1
2023-03-17T05:58:15.000Z,3.3
2023-03-17T05:59:31.000Z,3.1
2023-03-17T06:00:48.021Z,3.2
2023-03-17T06:02:02.000Z,2.7
2023-03-17T06:04:34.000Z,2.6
2023-03-17T06:05:49.000Z,2.7
2023-03-17T06:07:04.000Z,2.6
2023-03-17T06:08:21.000Z,3.2
2023-03-17T06:09:37.000Z,3.3
2023-03-17T06:10:53.941Z,2.8
2023-03-17T06:12:09.000Z,3
2023-03-17T06:13:26.000Z,2.7
2023-03-17T06:14:42.000Z,2.9
2023-03-17T06:17:14.000Z,2.8
2023-03-17T06:18:31.000Z,2.8
2023-03-17T06:19:47.000Z,2.7
2023-03-17T06:21:03.000Z,3.1
2023-03-17T06:22:19.000Z,2.7
2023-03-17T06:23:35.000Z,2.8
2023-03-17T06:24:51.507Z,2.6
2023-03-17T06:26:07.000Z,2.7
2023-03-17T06:27:23.000Z,2.7
2023-03-17T06:28:40.217Z,2.8
2023-03-17T06:29:56.000Z,2.7
2023-03-17T06:31:12.676Z,3.1
2023-03-17T06:32:28.000Z,3.3
2023-03-17T06:33:44.365Z,2.6
2023-03-17T06:34:59.000Z,2.7
2023-03-17T06:36:15.000Z,2.7
2023-03-17T06:37:31.000Z,2.6
2023-03-17T06:38:47.000Z,2.8
2023-03-17T06:40:04.000Z,2.9
2023-03-17T06:41:20.598Z,3
2023-03-17T06:42:36.000Z,2.7
2023-03-17T06:43:52.000Z,2.5
2023-03-17T06:45:09.000Z,2.6
2023-03-17T06:46:25.000Z,3.1
2023-03-17T06:47:41.743Z,2.8
2023-03-17T06:48:57.000Z,2.6
2023-03-17T06:50:13.000Z,2.8
2023-03-17T06:51:29.000Z,3
2023-03-17T06:52:45.000Z,3.4
2023-03-17T06:54:01.000Z,2.9
2023-03-17T06:55:18.190Z,2.9
2023-03-17T06:56:34.000Z,3.1
2023-03-17T06:57:50.000Z,2.6
2023-03-17T06:59:06.857Z,3.3
2023-03-17T07:00:21.000Z,3.3
2023-03-17T07:01:37.000Z,3.2
2023-03-17T07:02:52.000Z,2.6
2023-03-17T07:04:07.000Z,3.2
2023-03-17T07:05:23.000Z,2.5
2023-03-17T07:06:40.000Z,2.7
2023-03-17T07:07:56.000Z,2.7
2023-03-17T07:09:12.000Z,2.6
2023-03-17T07:10:28.000Z,2.9
2023-03-17T07:11:45.000Z,2.5
2023-03-17T07:13:01.000Z,2.5
2023-03-17T07:14:17.000Z,2.6
2023-03-17T07:15:33.000Z,3.1
2023-03-17T07:16:50.226Z,2.6
2023-03-17T07:18:06.000Z,2.7
2023-03-17T07:19:22.000Z,2.7
2023-03-17T07:20:37.000Z,2.9
2023-03-17T07:21:54.173Z,2.8
2023-03-17T07:23:10.000Z,2.9
2023-03-17T07:24:26.000Z,2.6
2023-03-17T07:25:42.000Z,2.8
2023-03-17T07:26:58.000Z,3.4
2023-03-17T07:28:15.000Z,3
2023-03-17T07:29:30.000Z,3.3
2023-03-17T07:30:45.000Z,2.7
2023-03-17T07:33:17.330Z,3
2023-03-17T07:34:32.000Z,2.7
2023-03-17T07:35:47.000Z,2.9
2023-03-17T07:37:03.000Z,2.2
2023-03-17T07:38:20.000Z,2.8
2023-03-17T07:39:36.000Z,2.8
2023-03-17T07:40:52.000Z,2.6
2023-03-17T07:42:08.000Z,2.9
2023-03-17T07:43:25.000Z,3.9
2023-03-17T07:44:41.000Z,2.7
2023-03-17T07:45:57.000Z,2.6
2023-03-17T07:47:13.000Z,2.5
2023-03-17T07:48:29.000Z,2.6
2023-03-17T07:49:46.000Z,2.4
2023-03-17T07:51:02.000Z,2.7
2023-03-17T07:52:17.000Z,2.2
2023-03-17T07:53:33.000Z,2.3
2023-03-17T07:54:50.374Z,2.6
2023-03-17T07:56:06.000Z,2.5
2023-03-17T07:57:22.000Z,2.6
2023-03-17T07:58:38.000Z,2.7
2023-03-17T07:59:54.000Z,2.8
2023-03-17T08:01:10.000Z,2.6
2023-03-17T08:02:25.000Z,2.5
2023-03-17T08:03:40.000Z,2.6
2023-03-17T08:04:57.000Z,2.8
2023-03-17T08:06:13.000Z,2.7
2023-03-17T08:07:28.000Z,2.8
2023-03-17T08:08:44.049Z,3
2023-03-17T08:11:16.000Z,2.7
2023-03-17T08:12:32.000Z,2.8
2023-03-17T08:13:48.976Z,2.6
2023-03-17T08:15:04.000Z,2.5
2023-03-17T08:16:21.000Z,2.5
2023-03-17T08:17:37.000Z,3.4
2023-03-17T08:18:53.000Z,2.8
2023-03-17T08:20:09.000Z,2.7
2023-03-17T08:21:26.000Z,2.5
2023-03-17T08:22:42.000Z,2.8
2023-03-17T08:23:58.000Z,3.9
2023-03-17T08:25:14.099Z,2.3
2023-03-17T08:26:30.000Z,2.5
2023-03-17T08:27:46.000Z,2.3
2023-03-17T08:29:02.000Z,2.1
2023-03-17T08:30:18.000Z,2.2
2023-03-17T08:31:34.000Z,2.9
2023-03-17T08:32:51.000Z,2
2023-03-17T08:34:07.000Z,1.9
2023-03-17T08:35:23.000Z,2.5
2023-03-17T08:36:40.187Z,2.1
2023-03-17T08:37:56.000Z,2
2023-03-17T08:39:12.000Z,2.5
2023-03-17T08:40:28.000Z,2.3
2023-03-17T08:41:43.000Z,2.4
2023-03-17T08:43:00.348Z,2.5
2023-03-17T08:44:16.000Z,2.8
2023-03-17T08:45:32.000Z,2.5
2023-03-17T08:46:48.000Z,2
2023-03-17T08:49:21.000Z,2.5
2023-03-17T08:50:37.000Z,2.3
2023-03-17T08:51:53.000Z,2.3
2023-03-17T08:53:09.000Z,2.6
2023-03-17T08:54:26.000Z,2.8
2023-03-17T08:55:42.000Z,2.6
2023-03-17T08:56:58.936Z,2.4
2023-03-17T08:58:13.000Z,3
2023-03-17T08:59:30.000Z,2.7
2023-03-17T09:02:02.000Z,2.7
2023-03-17T09:03:19.104Z,2.5
2023-03-17T09:04:35.000Z,2.2
2023-03-17T09:05:51.000Z,2.4
2023-03-17T09:07:07.000Z,2.3
2023-03-17T09:08:23.000Z,2.3
2023-03-17T09:09:40.000Z,2.1
2023-03-17T09:10:56.000Z,2.3
2023-03-17T09:12:12.000Z,2.4
2023-03-17T09:13:28.000Z,2.3
2023-03-17T09:14:43.000Z,2.5
2023-03-17T09:16:00.000Z,2.4
2023-03-17T09:17:16.000Z,2.4
2023-03-17T09:18:31.000Z,2.7
2023-03-17T09:19:46.000Z,2.7
2023-03-17T09:21:03.000Z,2.9
2023-03-17T09:22:19.000Z,2.1
2023-03-17T09:23:35.000Z,2.4
2023-03-17T09:24:51.000Z,2.6
2023-03-17T09:26:07.000Z,2.2
2023-03-17T09:27:22.000Z,1.9
2023-03-17T09:28:38.000Z,2.2
2023-03-17T09:29:54.000Z,2.3
2023-03-17T09:31:11.000Z,3
2023-03-17T09:32:27.000Z,2.2
2023-03-17T09:33:43.000Z,2.4
2023-03-17T09:34:59.000Z,2
2023-03-17T09:36:16.000Z,1.8
2023-03-17T09:37:32.000Z,2
2023-03-17T09:38:48.730Z,1.7
2023-03-17T09:40:04.000Z,2
2023-03-17T09:41:20.000Z,1.8
2023-03-17T09:42:37.000Z,1.9
2023-03-17T09:43:52.000Z,2.3
2023-03-17T09:45:08.000Z,2
2023-03-17T09:46:24.000Z,1.8
2023-03-17T09:47:41.000Z,2.1
2023-03-17T09:48:57.000Z,2
2023-03-17T09:50:13.000Z,2.1
2023-03-17T09:51:29.000Z,2.3
2023-03-17T09:52:45.000Z,2
2023-03-17T09:54:00.000Z,2.1
2023-03-17T09:55:15.000Z,2.1
2023-03-17T09:56:30.000Z,1.6
2023-03-17T09:57:47.313Z,2.2
2023-03-17T09:59:03.000Z,1.8
2023-03-17T10:00:19.000Z,1.9
2023-03-17T10:01:35.000Z,2
2023-03-17T10:02:52.000Z,2
2023-03-17T10:04:08.000Z,2.1
2023-03-17T10:05:24.000Z,3
2023-03-17T10:06:40.000Z,2.4
2023-03-17T10:07:56.000Z,2.1
2023-03-17T10:09:13.000Z,2.4
2023-03-17T10:10:29.000Z,2.1
2023-03-17T10:11:45.000Z,2.1
2023-03-17T10:13:00.000Z,2.1
2023-03-17T10:14:17.000Z,2.5
2023-03-17T10:15:33.000Z,2.2
2023-03-17T10:18:06.098Z,2.2
2023-03-17T10:19:22.000Z,2.5
2023-03-17T10:20:38.000Z,2.3
2023-03-17T10:21:54.000Z,2.8
2023-03-17T10:23:09.000Z,2.3
2023-03-17T10:24:25.000Z,2.6
2023-03-17T10:25:41.000Z,2.1
2023-03-17T10:26:57.763Z,2
2023-03-17T10:28:13.000Z,2.3
2023-03-17T10:30:46.000Z,2.1
2023-03-17T10:32:01.000Z,2.4
2023-03-17T10:33:16.000Z,2.1
2023-03-17T10:34:32.000Z,2.3
2023-03-17T10:35:49.000Z,2.3
2023-03-17T10:37:05.000Z,2.2
2023-03-17T10:38:21.000Z,2.2
2023-03-17T10:39:37.000Z,2.4
2023-03-17T10:40:54.000Z,3
2023-03-17T10:43:26.000Z,2.3
2023-03-17T10:44:42.000Z,2.5
2023-03-17T10:45:59.000Z,2.2
2023-03-17T10:47:15.000Z,2.3
2023-03-17T10:48:31.000Z,2.1
2023-03-17T10:49:46.990Z,2.1
2023-03-17T10:51:02.000Z,2.5
2023-03-17T10:52:19.000Z,2.5
2023-03-17T10:53:35.000Z,2.4
2023-03-17T10:56:07.000Z,2.4
2023-03-17T10:57:23.000Z,2.6
2023-03-17T10:58:38.000Z,3
2023-03-17T10:59:54.000Z,2.2
2023-03-17T11:01:10.000Z,2.2
2023-03-17T11:02:27.000Z,2.6
2023-03-17T11:03:43.000Z,2.5
2023-03-17T11:04:59.000Z,2.6
2023-03-17T11:06:15.000Z,2.5
2023-03-17T11:07:32.000Z,2.4
2023-03-17T11:08:48.000Z,2.5
2023-03-17T11:10:04.000Z,2.3
2023-03-17T11:11:20.050Z,2.5
2023-03-17T11:12:35.000Z,2.5
2023-03-17T11:13:51.000Z,2.9
2023-03-17T11:15:07.000Z,2.6
2023-03-17T11:16:23.000Z,2.6
2023-03-17T11:17:39.000Z,2.6
2023-03-17T11:18:56.000Z,2.3
2023-03-17T11:20:12.000Z,2.2
2023-03-17T11:21:28.000Z,2.3
2023-03-17T11:22:45.142Z,3
2023-03-17T11:24:01.000Z,2.4
2023-03-17T11:25:17.000Z,2.4
2023-03-17T11:26:33.000Z,2.2
2023-03-17T11:27:49.000Z,2.4
2023-03-17T11:29:05.000Z,1.6
2023-03-17T11:31:37.000Z,1.5
2023-03-17T11:34:10.000Z,2
2023-03-17T11:35:25.000Z,1.5
2023-03-17T11:36:40.000Z,2
2023-03-17T11:37:56.000Z,1.4
2023-03-17T11:39:13.000Z,1.5
2023-03-17T11:40:29.000Z,1.2
2023-03-17T11:41:45.707Z,1.6
2023-03-17T11:43:01.000Z,2
2023-03-17T11:44:17.000Z,1.7
2023-03-17T11:45:34.000Z,1.6
2023-03-17T11:46:50.000Z,1.6
2023-03-17T11:48:06.000Z,1.8
2023-03-17T11:49:21.000Z,1.6
2023-03-17T11:50:37.000Z,2.2
2023-03-17T11:51:53.000Z,2.2
2023-03-17T11:53:09.000Z,1.7
2023-03-17T11:54:25.000Z,1.9
2023-03-17T11:55:42.000Z,2.2
2023-03-17T11:56:58.000Z,1.7
2023-03-17T11:58:14.000Z,1.4
2023-03-17T11:59:30.000Z,2.1
2023-03-17T12:00:47.000Z,2
2023-03-17T12:02:03.000Z,2.4
2023-03-17T12:03:19.000Z,1.9
2023-03-17T12:04:35.000Z,1.6
2023-03-17T12:05:51.000Z,2
2023-03-17T12:07:07.000Z,1.5
2023-03-17T12:08:23.000Z,1.6
2023-03-17T12:09:39.000Z,1.6
2023-03-17T12:10:56.133Z,1.2
2023-03-17T12:12:12.000Z,1.9
2023-03-17T12:13:28.000Z,1.8
2023-03-17T12:14:43.000Z,1.7
2023-03-17T12:15:59.000Z,2.1
2023-03-17T12:17:16.000Z,1.6
2023-03-17T12:18:32.000Z,2
2023-03-17T12:19:48.778Z,1.3
2023-03-17T12:21:03.000Z,1.6
2023-03-17T12:22:19.000Z,1.7
2023-03-17T12:23:35.000Z,1.7
2023-03-17T12:24:51.000Z,1.6
2023-03-17T12:26:06.000Z,2
2023-03-17T12:27:22.257Z,1.6
2023-03-17T12:28:38.000Z,1.4
2023-03-17T12:29:54.000Z,1.8
2023-03-17T12:31:10.000Z,1.7
2023-03-17T12:32:26.000Z,2
2023-03-17T12:33:43.000Z,1.9
2023-03-17T12:34:59.000Z,1.5
2023-03-17T12:36:15.914Z,3.8
2023-03-17T12:37:31.000Z,1.2
2023-03-17T12:38:48.000Z,2.1
2023-03-17T12:40:04.000Z,2
2023-03-17T12:41:20.000Z,1.3
2023-03-17T12:42:36.000Z,1.9
2023-03-17T12:43:52.000Z,2
2023-03-17T12:45:08.000Z,1.6
2023-03-17T12:46:24.000Z,2
2023-03-17T12:47:40.000Z,1.5
2023-03-17T12:50:13.000Z,1.8
2023-03-17T12:51:29.000Z,1.8
2023-03-17T12:52:45.950Z,2.3
2023-03-17T12:54:01.000Z,2
2023-03-17T12:55:18.407Z,1.9
2023-03-17T12:56:34.000Z,1.9
2023-03-17T12:57:50.000Z,2.1
2023-03-17T12:59:06.000Z,1.8
2023-03-17T13:00:22.000Z,1.5
2023-03-17T13:01:38.605Z,2
2023-03-17T13:02:54.000Z,2.1
2023-03-17T13:04:10.000Z,1.7
2023-03-17T13:05:27.000Z,1.5
2023-03-17T13:06:43.518Z,1.5
2023-03-17T13:07:59.000Z,1.6
2023-03-17T13:09:15.000Z,2.2
2023-03-17T13:10:31.000Z,1.6
2023-03-17T13:11:48.000Z,1.9
2023-03-17T13:13:04.000Z,2
2023-03-17T13:14:20.934Z,1.8
2023-03-17T13:15:36.000Z,2.1
2023-03-17T13:16:52.000Z,3.1
2023-03-17T13:18:08.000Z,1.7
2023-03-17T13:19:24.000Z,1.9
2023-03-17T13:20:41.089Z,2.1
2023-03-17T13:21:56.000Z,1.4
2023-03-17T13:23:11.000Z,2.2
2023-03-17T13:24:27.000Z,1.9
2023-03-17T13:25:43.000Z,2.6
2023-03-17T13:28:15.000Z,2
2023-03-17T13:29:30.000Z,1.9
2023-03-17T13:30:45.000Z,1.8
2023-03-17T13:32:02.000Z,1.4
2023-03-17T13:33:18.000Z,1.4
2023-03-17T13:34:34.000Z,1.6
2023-03-17T13:35:50.000Z,1.6
2023-03-17T13:37:07.000Z,1.8
2023-03-17T13:38:23.000Z,1.9
2023-03-17T13:40:55.000Z,1.8
2023-03-17T13:42:11.000Z,2.7
2023-03-17T13:43:28.000Z,2.2
2023-03-17T13:44:44.000Z,1.9
2023-03-17T13:46:00.000Z,1.7
2023-03-17T13:47:15.000Z,1.6
2023-03-17T13:48:32.000Z,1.2
2023-03-17T13:49:48.000Z,1.6
2023-03-17T13:51:04.000Z,1.2
2023-03-17T13:52:20.000Z,1.7
2023-03-17T13:53:37.000Z,1.1
2023-03-17T13:54:53.000Z,1.5
2023-03-17T13:56:09.000Z,1.3
2023-03-17T13:57:25.000Z,3.3
2023-03-17T13:58:41.000Z,4.3
2023-03-17T13:59:58.000Z,1.6
2023-03-17T14:01:14.000Z,1.3
2023-03-17T14:02:30.000Z,1.4
2023-03-17T14:03:45.000Z,1.5
2023-03-17T14:05:02.391Z,1.8
2023-03-17T14:06:18.000Z,2
2023-03-17T14:07:34.000Z,1.7
2023-03-17T14:08:51.077Z,1.6
2023-03-17T14:10:07.000Z,1.8
2023-03-17T14:11:23.599Z,1.8
2023-03-17T14:12:39.000Z,1.5
2023-03-17T14:13:55.000Z,1.7
2023-03-17T14:15:12.000Z,1.7
2023-03-17T14:16:28.000Z,2.9
2023-03-17T14:17:44.000Z,1.7
2023-03-17T14:19:00.000Z,2.1
2023-03-17T14:20:16.214Z,1.4
2023-03-17T14:21:32.000Z,2.1
2023-03-17T14:22:48.000Z,1.7
2023-03-17T14:24:04.000Z,1.6
2023-03-17T14:25:21.121Z,1.3
2023-03-17T14:26:37.000Z,2
2023-03-17T14:27:53.000Z,1.3
2023-03-17T14:29:09.000Z,1.9
2023-03-17T14:30:26.075Z,1.9
2023-03-17T14:31:42.000Z,1.5
2023-03-17T14:32:58.000Z,1.7
2023-03-17T14:34:14.000Z,1.5
2023-03-17T14:35:29.000Z,1.2
2023-03-17T14:36:45.000Z,1.6
2023-03-17T14:38:01.000Z,1.7
2023-03-17T14:39:17.000Z,1.5
2023-03-17T14:40:33.000Z,1.2
2023-03-17T14:41:49.000Z,1.7
2023-03-17T14:43:06.000Z,1.2
2023-03-17T14:44:22.000Z,1.6
2023-03-17T14:45:38.000Z,1.7
2023-03-17T14:46:55.149Z,1.4
2023-03-17T14:48:11.000Z,1.6
2023-03-17T14:49:27.608Z,1.4
2023-03-17T14:50:43.000Z,1.9
2023-03-17T14:51:59.000Z,1.7
2023-03-17T14:53:15.000Z,1.8
2023-03-17T14:54:30.000Z,1.8
2023-03-17T14:55:46.000Z,1.8
2023-03-17T14:57:02.000Z,1.5
2023-03-17T14:58:19.000Z,1.6
2023-03-17T14:59:35.000Z,1.7
2023-03-17T15:00:51.000Z,1.9
2023-03-17T15:02:07.000Z,2.2
2023-03-17T15:03:23.000Z,1.9
2023-03-17T15:04:40.000Z,1.7
2023-03-17T15:05:56.000Z,1.9
2023-03-17T15:07:12.000Z,2.1
2023-03-17T15:08:28.000Z,1.8
2023-03-17T15:09:45.000Z,2
2023-03-17T15:11:00.000Z,2.3
2023-03-17T15:12:16.000Z,2.2
2023-03-17T15:13:33.198Z,2.3
2023-03-17T15:14:49.000Z,2.7
2023-03-17T15:16:05.000Z,1.9
2023-03-17T15:17:21.790Z,2
2023-03-17T15:18:37.000Z,3.1
2023-03-17T15:19:54.000Z,2.4
2023-03-17T15:22:26.000Z,2.5
2023-03-17T15:23:42.000Z,2.4
2023-03-17T15:24:58.000Z,2.4
2023-03-17T15:26:15.000Z,2.2
2023-03-17T15:27:30.696Z,2.3
2023-03-17T15:28:46.000Z,2.2
2023-03-17T15:30:03.133Z,2.3
2023-03-17T15:31:19.000Z,3
2023-03-17T15:32:35.000Z,2.2
2023-03-17T15:33:51.848Z,2.4
2023-03-17T15:35:07.000Z,2.2
2023-03-17T15:36:24.000Z,2.1
2023-03-17T15:37:40.000Z,2.4
2023-03-17T15:38:56.000Z,2.3
2023-03-17T15:40:12.000Z,2.5
2023-03-17T15:41:29.000Z,2.5
2023-03-17T15:42:45.000Z,2.2
2023-03-17T15:44:00.000Z,2.3
2023-03-17T15:45:15.000Z,2.6
2023-03-17T15:46:31.000Z,2.8
2023-03-17T15:47:48.487Z,2.7
2023-03-17T15:49:04.000Z,2.3
2023-03-17T15:50:20.000Z,2.7
2023-03-17T15:51:35.000Z,2.4
2023-03-17T15:52:51.423Z,2.4
2023-03-17T15:54:07.000Z,2.3
2023-03-17T15:55:23.000Z,3.1
2023-03-17T15:56:39.000Z,2.7
2023-03-17T15:57:56.000Z,2.8
2023-03-17T16:00:28.000Z,2.6
2023-03-17T16:01:44.000Z,3.1
2023-03-17T16:03:01.000Z,2.9
2023-03-17T16:04:17.000Z,2.6
2023-03-17T16:05:33.000Z,2.7
2023-03-17T16:06:49.000Z,2.5
2023-03-17T16:08:05.000Z,3
2023-03-17T16:09:21.459Z,3.6
2023-03-17T16:10:37.000Z,3.2
2023-03-17T16:13:09.000Z,3.1
2023-03-17T16:14:26.000Z,3.2
2023-03-17T16:15:41.000Z,2.9
2023-03-17T16:16:56.000Z,2.7
2023-03-17T16:18:12.000Z,2.9
2023-03-17T16:19:29.000Z,4.2
2023-03-17T16:20:45.000Z,2.4
2023-03-17T16:22:01.000Z,2.8
2023-03-17T16:23:17.000Z,3.4
2023-03-17T16:24:34.000Z,2.8
2023-03-17T16:25:50.000Z,4.3
2023-03-17T16:27:06.000Z,2.2
2023-03-17T16:28:23.005Z,4.1
2023-03-17T16:29:38.000Z,3.7
2023-03-17T16:30:53.000Z,3.5
2023-03-17T16:32:09.000Z,2.8
2023-03-17T16:33:25.000Z,2.9
2023-03-17T16:34:41.000Z,2.7
2023-03-17T16:35:58.000Z,3.3
2023-03-17T16:37:14.000Z,2.4
2023-03-17T16:38:30.000Z,2.7
2023-03-17T16:39:46.000Z,2.5
2023-03-17T16:41:03.000Z,2.4
2023-03-17T16:42:19.624Z,3.1
2023-03-17T16:43:35.000Z,3.2
2023-03-17T16:44:51.000Z,3
2023-03-17T16:46:08.000Z,2.7
2023-03-17T16:47:23.571Z,3
2023-03-17T16:48:39.000Z,2.2
2023-03-17T16:51:12.000Z,2.8
2023-03-17T16:52:28.000Z,3
2023-03-17T16:53:44.000Z,3.1
2023-03-17T16:55:00.000Z,3.1
2023-03-17T16:56:16.000Z,2.3
2023-03-17T16:57:32.000Z,3
2023-03-17T16:58:47.000Z,3.4
2023-03-17T17:00:02.000Z,3.5
2023-03-17T17:01:17.000Z,3
2023-03-17T17:02:34.488Z,2.6
2023-03-17T17:03:50.000Z,2.2
2023-03-17T17:05:06.000Z,2.9
2023-03-17T17:06:22.000Z,2.7
2023-03-17T17:07:39.000Z,2.9
2023-03-17T17:08:55.000Z,2.8
2023-03-17T17:10:11.000Z,2.8
2023-03-17T17:11:27.000Z,3.7
2023-03-17T17:12:44.000Z,3
2023-03-17T17:14:00.000Z,3.6
2023-03-17T17:15:16.000Z,2.8
2023-03-17T17:16:32.000Z,4
2023-03-17T17:17:48.000Z,2.8
2023-03-17T17:19:04.000Z,3
2023-03-17T17:20:20.762Z,4.4
2023-03-17T17:21:36.000Z,3.5
2023-03-17T17:22:52.000Z,3
2023-03-17T17:24:09.000Z,3.4
2023-03-17T17:25:25.000Z,4.1
2023-03-17T17:26:41.000Z,3
2023-03-17T17:27:58.154Z,3.3
2023-03-17T17:29:14.000Z,3.2
2023-03-17T17:30:30.000Z,3.6
2023-03-17T17:31:46.000Z,3.2
2023-03-17T17:33:02.000Z,3.1
2023-03-17T17:34:18.000Z,4.1
2023-03-17T17:35:34.000Z,3.1
2023-03-17T17:36:50.000Z,3
2023-03-17T17:38:06.000Z,2.9
2023-03-17T17:39:23.000Z,3.3
2023-03-17T17:40:39.000Z,3
2023-03-17T17:41:55.000Z,2.9
2023-03-17T17:43:11.000Z,2.9
2023-03-17T17:44:27.000Z,2.8
2023-03-17T17:45:44.000Z,2.8
2023-03-17T17:47:00.666Z,3.5
2023-03-17T17:48:16.000Z,2.1
2023-03-17T17:49:32.000Z,2.8
2023-03-17T17:50:48.000Z,3.1
2023-03-17T17:52:04.000Z,3.1
2023-03-17T17:53:19.888Z,4.2
2023-03-17T17:54:34.000Z,2.9
2023-03-17T17:55:50.000Z,3.1
2023-03-17T17:57:05.000Z,3.2
2023-03-17T17:58:21.000Z,4.9
2023-03-17T17:59:37.000Z,3.2
2023-03-17T18:00:54.000Z,3.1